Millwood, Missouri
Current Conditions -  °F | °C
As of 5:54 PM on Wednesday 22 Oct 2014 (Local Time) from KSET Reporting Station
Clear Clear  
Wind Chill: 15°   Ceiling: Unl
Heat Index: 15°   Visibility: 10mi
Dew Point:   Wind: 7mph
Humidity: 53%   Direction: 130°SE
Pressure: 30.2"   Gusts: NA
Location:  39.1404°N, 91.0631°W
Report Text: KSET 222254Z AUTO 13006KT 10SM CLR 15/06 A3020 RMK AO2 SLP227 T01500056 $
Loading
Personal Weather Stations






























Interactive Weather Map
Tropical Storm Tracking
New forecast layout! Learn more

10-Day Weather Forecast

Advertisements
Track Severe Weather on mobile